createdAt,value
2018-05-24T00:01:51.025Z,18.04
2018-05-24T00:04:23.659Z,18.04
2018-05-24T00:06:57.838Z,18.03
2018-05-24T00:09:30.379Z,18.00
2018-05-24T00:12:02.704Z,18.00
2018-05-24T00:14:35.141Z,18.00
2018-05-24T00:17:07.361Z,17.98
2018-05-24T00:19:39.524Z,17.98
2018-05-24T00:22:12.667Z,17.95
2018-05-24T00:24:45.301Z,17.92
2018-05-24T00:27:19.083Z,17.91
2018-05-24T00:29:53.037Z,17.90
2018-05-24T00:32:26.700Z,17.89
2018-05-24T00:35:00.137Z,17.88
2018-05-24T00:37:33.519Z,17.86
2018-05-24T00:40:05.682Z,17.85
2018-05-24T00:42:40.020Z,17.84
2018-05-24T00:45:12.149Z,17.84
2018-05-24T00:47:45.098Z,17.81
2018-05-24T00:50:17.958Z,17.80
2018-05-24T00:52:50.157Z,17.80
2018-05-24T00:55:39.287Z,17.77
2018-05-24T00:58:12.161Z,17.74
2018-05-24T01:00:46.099Z,17.72
2018-05-24T01:03:18.737Z,17.69
2018-05-24T01:05:52.243Z,17.68
2018-05-24T01:08:24.466Z,17.68
2018-05-24T01:10:56.683Z,17.67
2018-05-24T01:13:31.695Z,17.68
2018-05-24T01:16:04.123Z,17.67
2018-05-24T01:18:36.746Z,17.67
2018-05-24T01:21:09.880Z,17.66
2018-05-24T01:23:42.677Z,17.64
2018-05-24T01:26:15.314Z,17.66
2018-05-24T01:28:48.020Z,17.66
2018-05-24T01:31:21.015Z,17.68
2018-05-24T01:33:53.922Z,17.69
2018-05-24T01:39:34.158Z,17.68
2018-05-24T01:42:07.123Z,17.67
2018-05-24T01:44:39.941Z,17.66
2018-05-24T01:47:13.642Z,17.68
2018-05-24T01:49:47.420Z,17.68
2018-05-24T01:52:19.498Z,17.65
2018-05-24T01:54:52.047Z,17.66
2018-05-24T01:57:24.600Z,17.64
2018-05-24T01:59:59.042Z,17.67
2018-05-24T02:02:32.900Z,17.70
2018-05-24T02:05:05.714Z,17.70
2018-05-24T02:07:38.217Z,17.68
2018-05-24T02:10:11.821Z,17.67
2018-05-24T02:12:44.177Z,17.69
2018-05-24T02:15:17.659Z,17.70
2018-05-24T02:17:50.581Z,17.71
2018-05-24T02:20:23.624Z,17.73
2018-05-24T02:22:56.403Z,17.74
2018-05-24T02:25:29.747Z,17.77
2018-05-24T02:28:02.478Z,17.78
2018-05-24T02:30:35.923Z,17.78
2018-05-24T02:33:09.142Z,17.78
2018-05-24T02:35:42.149Z,17.80
2018-05-24T02:38:14.440Z,17.79
2018-05-24T02:40:46.739Z,17.80
2018-05-24T02:43:19.980Z,17.79
2018-05-24T02:45:53.325Z,17.77
2018-05-24T02:48:25.643Z,17.76
2018-05-24T02:50:58.280Z,17.77
2018-05-24T02:53:30.784Z,17.76
2018-05-24T02:56:03.843Z,17.77
2018-05-24T02:58:36.241Z,17.75
2018-05-24T03:01:08.880Z,17.68
2018-05-24T03:03:42.798Z,17.68
2018-05-24T03:06:15.541Z,17.70
2018-05-24T03:08:50.164Z,17.67
2018-05-24T03:11:27.143Z,17.65
2018-05-24T03:14:05.075Z,17.65
2018-05-24T03:16:41.502Z,17.66
2018-05-24T03:19:17.125Z,17.64
2018-05-24T03:21:52.296Z,17.62
2018-05-24T03:24:30.957Z,17.62
2018-05-24T03:27:06.635Z,17.60
2018-05-24T03:29:41.025Z,17.59
2018-05-24T03:32:17.658Z,17.59
2018-05-24T03:34:56.059Z,17.60
2018-05-24T03:37:32.074Z,17.61
2018-05-24T03:40:07.499Z,17.62
2018-05-24T03:42:43.599Z,17.63
2018-05-24T03:45:20.018Z,17.64
2018-05-24T03:47:58.079Z,17.66
2018-05-24T03:50:34.157Z,17.68
2018-05-24T03:53:09.537Z,17.68
2018-05-24T03:55:45.451Z,17.69
2018-05-24T03:58:20.061Z,17.71
2018-05-24T04:01:16.657Z,17.71
2018-05-24T04:03:57.138Z,17.70
2018-05-24T04:06:34.575Z,17.66
2018-05-24T04:09:17.317Z,17.64
2018-05-24T04:11:55.661Z,17.64
2018-05-24T04:14:36.359Z,17.49
2018-05-24T04:17:22.076Z,17.42
2018-05-24T04:19:59.433Z,17.44
2018-05-24T04:22:36.454Z,17.45
2018-05-24T04:25:16.003Z,17.47
2018-05-24T04:27:53.077Z,17.49
2018-05-24T04:30:29.898Z,17.48
2018-05-24T04:33:09.285Z,17.43
2018-05-24T04:35:44.157Z,17.42
2018-05-24T04:38:19.637Z,17.45
2018-05-24T04:40:55.656Z,17.47
2018-05-24T04:43:32.954Z,17.46
2018-05-24T04:46:16.055Z,17.44
2018-05-24T04:48:53.375Z,17.44
2018-05-24T04:51:32.588Z,17.48
2018-05-24T04:54:10.678Z,17.54
2018-05-24T04:56:46.683Z,17.57
2018-05-24T04:59:27.494Z,17.55
2018-05-24T05:02:06.599Z,17.54
2018-05-24T05:04:52.141Z,17.54
2018-05-24T05:07:35.800Z,17.54
2018-05-24T05:10:11.405Z,17.55
2018-05-24T05:12:48.695Z,17.51
2018-05-24T05:15:27.057Z,17.49
2018-05-24T05:18:02.729Z,17.46
2018-05-24T05:20:38.821Z,17.47
2018-05-24T05:23:17.430Z,17.52
2018-05-24T05:25:53.536Z,17.55
2018-05-24T05:28:32.115Z,17.54
2018-05-24T05:31:09.985Z,17.57
2018-05-24T05:33:46.709Z,17.60
2018-05-24T05:36:24.758Z,17.61
2018-05-24T05:39:05.100Z,17.60
2018-05-24T05:41:46.284Z,17.60
2018-05-24T05:44:25.168Z,17.61
2018-05-24T05:47:02.605Z,17.64
2018-05-24T05:49:40.453Z,17.69
2018-05-24T05:52:20.840Z,17.72
2018-05-24T05:54:59.800Z,17.73
2018-05-24T05:57:36.785Z,17.70
2018-05-24T06:00:15.059Z,17.68
2018-05-24T06:02:54.862Z,17.69
2018-05-24T06:05:34.980Z,17.69
2018-05-24T06:08:12.243Z,17.71
2018-05-24T06:10:51.301Z,17.70
2018-05-24T06:16:23.916Z,17.69
2018-05-24T06:19:08.221Z,17.71
2018-05-24T06:22:00.460Z,17.73
2018-05-24T06:24:44.354Z,17.74
2018-05-24T06:27:23.345Z,17.76
2018-05-24T06:30:00.236Z,17.78
2018-05-24T06:32:46.519Z,17.79
2018-05-24T06:35:27.076Z,17.75
2018-05-24T06:38:18.798Z,17.70
2018-05-24T06:41:06.032Z,17.68
2018-05-24T06:43:47.536Z,17.70
2018-05-24T06:46:27.048Z,17.72
2018-05-24T06:49:10.036Z,17.72
2018-05-24T06:54:33.100Z,17.75
2018-05-24T07:00:17.081Z,17.71
2018-05-24T07:02:55.677Z,17.67
2018-05-24T07:05:37.618Z,17.67
2018-05-24T07:08:18.801Z,17.69
2018-05-24T07:10:59.600Z,17.68
2018-05-24T07:13:37.177Z,17.67
2018-05-24T07:19:17.916Z,17.70
2018-05-24T07:21:57.596Z,17.70
2018-05-24T07:24:48.065Z,17.70
2018-05-24T07:30:16.457Z,17.74
2018-05-24T07:32:59.998Z,17.77
2018-05-24T07:35:39.359Z,17.78
2018-05-24T07:38:22.004Z,17.82
2018-05-24T07:41:05.280Z,17.90
2018-05-24T07:43:43.680Z,18.00
2018-05-24T07:46:31.837Z,18.08
2018-05-24T07:49:12.677Z,18.14
2018-05-24T07:51:51.907Z,18.18
2018-05-24T07:54:28.838Z,18.17
2018-05-24T07:57:13.319Z,18.19
2018-05-24T07:59:50.317Z,18.20
2018-05-24T08:02:27.796Z,18.18
2018-05-24T08:05:19.472Z,18.18
2018-05-24T08:07:59.221Z,18.21
2018-05-24T08:10:40.423Z,18.29
2018-05-24T08:13:16.639Z,18.40
2018-05-24T08:15:55.119Z,18.51
2018-05-24T08:18:39.740Z,18.73
2018-05-24T08:21:18.499Z,19.06
2018-05-24T08:23:54.581Z,19.35
2018-05-24T08:26:36.932Z,19.55
2018-05-24T08:29:13.141Z,19.69
2018-05-24T08:31:55.759Z,19.92
2018-05-24T09:07:07.700Z,21.45
2018-05-24T09:09:44.276Z,21.66
2018-05-24T09:12:34.940Z,21.82
2018-05-24T09:15:23.819Z,21.85
2018-05-24T09:18:00.657Z,21.93
2018-05-24T09:20:36.300Z,22.10
2018-05-24T09:23:10.938Z,22.31
2018-05-24T09:25:49.279Z,22.48
2018-05-24T09:28:31.115Z,22.59
2018-05-24T09:31:11.275Z,22.74
2018-05-24T09:33:47.063Z,22.89
2018-05-24T09:36:24.906Z,23.05
2018-05-24T09:39:06.664Z,23.17
2018-05-24T09:41:41.864Z,23.29
2018-05-24T09:44:16.641Z,23.52
2018-05-24T09:46:50.684Z,23.72
2018-05-24T09:49:28.627Z,24.05
2018-05-24T09:52:02.300Z,24.39
2018-05-24T09:54:39.387Z,24.66
2018-05-24T09:57:16.117Z,24.67
2018-05-24T09:59:51.377Z,24.65
2018-05-24T10:02:25.928Z,24.58
2018-05-24T10:05:00.722Z,24.44
2018-05-24T10:07:35.538Z,24.28
2018-05-24T10:10:10.235Z,24.08
2018-05-24T10:12:46.116Z,23.88
2018-05-24T10:15:23.599Z,23.71
2018-05-24T10:17:57.960Z,23.56
2018-05-24T10:20:32.359Z,23.48
2018-05-24T10:23:05.064Z,23.38
2018-05-24T10:25:44.177Z,23.29
2018-05-24T10:28:18.403Z,23.24
2018-05-24T10:30:53.202Z,23.20
2018-05-24T10:33:27.416Z,23.12
2018-05-24T10:36:00.468Z,23.01
2018-05-24T10:38:34.863Z,22.88
2018-05-24T10:41:08.538Z,22.75
2018-05-24T10:43:43.360Z,22.60
2018-05-24T10:46:16.581Z,22.45
2018-05-24T10:48:50.350Z,22.29
2018-05-24T10:51:25.985Z,22.17
2018-05-24T10:53:58.845Z,22.03
2018-05-24T10:56:34.026Z,21.90
2018-05-24T10:59:08.005Z,21.79
2018-05-24T11:01:43.251Z,21.70
2018-05-24T11:04:16.280Z,21.59
2018-05-24T11:06:48.737Z,21.50
2018-05-24T11:09:22.427Z,21.44
2018-05-24T11:12:05.724Z,21.40
2018-05-24T11:14:46.103Z,21.35
2018-05-24T11:17:25.119Z,21.31
2018-05-24T11:20:01.503Z,21.26
2018-05-24T11:22:38.176Z,21.21
2018-05-24T11:25:15.237Z,21.15
2018-05-24T11:27:55.389Z,21.07
2018-05-24T11:30:42.170Z,20.97
2018-05-24T11:33:21.883Z,20.81
2018-05-24T11:36:00.563Z,20.65
2018-05-24T11:38:37.804Z,20.44
2018-05-24T11:41:19.122Z,20.28
2018-05-24T11:43:58.224Z,20.15
2018-05-24T11:46:37.361Z,20.08
2018-05-24T11:49:18.183Z,20.04
2018-05-24T11:51:55.701Z,20.03
2018-05-24T11:54:31.045Z,20.01
2018-05-24T11:57:09.762Z,19.98
2018-05-24T11:59:49.384Z,19.97
2018-05-24T12:02:35.003Z,19.99
2018-05-24T12:05:16.199Z,20.04
2018-05-24T12:07:52.463Z,20.08
2018-05-24T12:10:33.129Z,20.10
2018-05-24T12:13:13.942Z,20.13
2018-05-24T12:15:53.825Z,20.18
2018-05-24T12:18:44.082Z,20.26
2018-05-24T12:21:24.204Z,20.35
2018-05-24T12:24:09.643Z,20.46
2018-05-24T12:26:52.460Z,20.58
2018-05-24T12:29:31.906Z,20.82
2018-05-24T12:35:24.419Z,21.76
2018-05-24T12:38:04.839Z,22.10
2018-05-24T12:40:43.689Z,22.59
2018-05-24T12:43:25.264Z,23.00
2018-05-24T12:46:00.560Z,23.27
2018-05-24T12:48:39.460Z,23.40
2018-05-24T12:51:16.845Z,23.38
2018-05-24T12:53:52.681Z,23.27
2018-05-24T12:56:28.960Z,23.14
2018-05-24T13:01:49.901Z,23.16
2018-05-24T13:04:30.361Z,23.10
2018-05-24T13:07:13.743Z,22.97
2018-05-24T13:09:54.201Z,22.77
2018-05-24T13:12:42.024Z,22.65
2018-05-24T13:15:19.241Z,22.59
2018-05-24T13:17:57.422Z,22.57
2018-05-24T13:20:37.522Z,22.54
2018-05-24T13:23:17.219Z,22.56
2018-05-24T13:25:56.000Z,22.58
2018-05-24T13:28:30.083Z,22.64
2018-05-24T13:31:10.346Z,22.72
2018-05-24T13:33:48.744Z,22.75
2018-05-24T13:36:27.160Z,22.77
2018-05-24T13:39:00.204Z,22.78
2018-05-24T13:41:35.785Z,22.76
2018-05-24T13:44:15.807Z,22.84
2018-05-24T13:46:54.701Z,23.22
2018-05-24T13:49:28.378Z,23.67
2018-05-24T13:52:06.400Z,23.88
2018-05-24T13:54:40.361Z,24.00
2018-05-24T13:57:19.459Z,24.16
2018-05-24T13:59:57.385Z,24.12
2018-05-24T14:02:39.145Z,24.05
2018-05-24T14:05:17.763Z,23.98
2018-05-24T14:07:54.750Z,23.99
2018-05-24T14:10:34.224Z,24.00
2018-05-24T14:13:09.423Z,24.31
2018-05-24T14:15:43.458Z,24.47
2018-05-24T14:18:18.422Z,24.47
2018-05-24T14:20:52.548Z,24.56
2018-05-24T14:23:28.986Z,24.70
2018-05-24T14:26:02.152Z,24.62
2018-05-24T14:28:39.002Z,24.48
2018-05-24T14:31:13.757Z,24.25
2018-05-24T14:33:46.742Z,24.04
2018-05-24T14:36:19.419Z,23.90
2018-05-24T14:38:52.207Z,23.78
2018-05-24T14:41:29.563Z,23.71
2018-05-24T14:44:04.039Z,23.59
2018-05-24T14:46:38.583Z,23.47
2018-05-24T14:49:18.046Z,23.46
2018-05-24T14:51:56.225Z,23.47
2018-05-24T14:54:29.360Z,23.48
2018-05-24T14:57:05.100Z,23.48
2018-05-24T14:59:39.203Z,23.57
2018-05-24T15:02:16.662Z,23.83
2018-05-24T15:07:47.764Z,24.33
2018-05-24T15:10:23.721Z,24.54
2018-05-24T15:12:57.107Z,24.74
2018-05-24T15:15:31.103Z,24.79
2018-05-24T15:18:12.409Z,24.80
2018-05-24T15:20:46.201Z,24.67
2018-05-24T15:23:24.178Z,24.57
2018-05-24T15:26:03.844Z,24.49
2018-05-24T15:28:42.020Z,24.43
2018-05-24T15:31:24.641Z,24.31
2018-05-24T15:33:58.377Z,24.02
2018-05-24T15:36:32.922Z,23.76
2018-05-24T15:39:06.081Z,23.51
2018-05-24T15:41:41.587Z,23.28
2018-05-24T15:44:18.978Z,23.06
2018-05-24T15:46:51.726Z,22.82
2018-05-24T15:49:25.710Z,22.64
2018-05-24T15:52:00.798Z,22.53
2018-05-24T15:54:39.704Z,22.46
2018-05-24T15:57:12.381Z,22.42
2018-05-24T15:59:47.801Z,22.49
2018-05-24T16:02:31.460Z,22.63
2018-05-24T16:05:04.818Z,22.81
2018-05-24T16:07:40.684Z,22.90
2018-05-24T16:10:15.944Z,22.94
2018-05-24T16:12:50.477Z,22.92
2018-05-24T16:15:26.405Z,22.84
2018-05-24T16:18:00.885Z,22.78
2018-05-24T16:20:38.105Z,22.75
2018-05-24T16:23:14.179Z,22.73
2018-05-24T16:25:48.628Z,22.77
2018-05-24T16:28:22.920Z,22.83
2018-05-24T16:30:58.275Z,22.95
2018-05-24T16:33:32.539Z,23.05
2018-05-24T16:36:05.704Z,23.10
2018-05-24T16:38:40.522Z,23.14
2018-05-24T16:41:15.405Z,23.14
2018-05-24T16:43:48.074Z,23.11
2018-05-24T16:46:21.960Z,23.11
2018-05-24T16:48:56.803Z,23.07
2018-05-24T16:51:30.520Z,23.03
2018-05-24T16:54:04.504Z,23.00
2018-05-24T16:56:38.239Z,22.98
2018-05-24T16:59:12.202Z,22.94
2018-05-24T17:01:46.466Z,22.82
2018-05-24T17:04:22.817Z,22.69
2018-05-24T17:06:56.283Z,22.60
2018-05-24T17:09:29.243Z,22.52
2018-05-24T17:12:03.284Z,22.47
2018-05-24T17:14:37.307Z,22.40
2018-05-24T17:17:09.964Z,22.34
2018-05-24T17:19:42.561Z,22.30
2018-05-24T17:22:15.982Z,22.24
2018-05-24T17:24:48.018Z,22.18
2018-05-24T17:27:20.718Z,22.11
2018-05-24T17:29:53.821Z,22.04
2018-05-24T17:32:28.348Z,22.01
2018-05-24T17:35:01.825Z,21.97
2018-05-24T17:37:35.539Z,21.92
2018-05-24T17:40:11.107Z,21.86
2018-05-24T17:42:46.801Z,21.82
2018-05-24T17:45:23.527Z,21.79
2018-05-24T17:48:00.057Z,21.77
2018-05-24T17:50:34.095Z,21.75
2018-05-24T17:53:09.620Z,21.72
2018-05-24T17:55:43.063Z,21.72
2018-05-24T17:58:18.425Z,21.72
2018-05-24T18:00:50.858Z,21.71
2018-05-24T18:03:23.602Z,21.67
2018-05-24T18:05:59.219Z,21.64
2018-05-24T18:08:31.744Z,21.61
2018-05-24T18:11:07.725Z,21.57
2018-05-24T18:13:41.022Z,21.53
2018-05-24T18:16:13.664Z,21.49
2018-05-24T18:18:47.563Z,21.43
2018-05-24T18:21:22.002Z,21.37
2018-05-24T18:23:54.320Z,21.34
2018-05-24T18:26:27.159Z,21.27
2018-05-24T18:29:00.258Z,21.21
2018-05-24T18:31:33.042Z,21.14
2018-05-24T18:34:05.419Z,21.04
2018-05-24T18:36:38.640Z,20.98
2018-05-24T18:39:12.203Z,20.91
2018-05-24T18:41:45.738Z,20.84
2018-05-24T19:50:04.101Z,18.82
2018-05-24T19:52:38.219Z,18.78
2018-05-24T19:55:10.547Z,18.78
2018-05-24T19:57:43.642Z,18.78
2018-05-24T20:00:20.896Z,18.75
2018-05-24T20:02:56.685Z,18.71
2018-05-24T20:05:31.060Z,18.71
2018-05-24T20:08:03.199Z,18.66
2018-05-24T20:10:39.255Z,18.62
2018-05-24T20:13:12.524Z,18.60
2018-05-24T20:15:44.441Z,18.58
2018-05-24T20:18:18.043Z,18.54
2018-05-24T20:20:50.484Z,18.53
2018-05-24T20:23:25.260Z,18.50
2018-05-24T20:25:57.382Z,18.46
2018-05-24T20:28:32.205Z,18.41
2018-05-24T20:31:04.457Z,18.35
2018-05-24T20:33:37.961Z,18.34
2018-05-24T20:36:11.961Z,18.33
2018-05-24T20:38:45.564Z,18.31
2018-05-24T20:41:17.926Z,18.30
2018-05-24T20:43:50.904Z,18.30
2018-05-24T20:46:24.064Z,18.31
2018-05-24T20:48:58.216Z,18.30
2018-05-24T20:51:31.845Z,18.31
2018-05-24T20:54:04.762Z,18.31
2018-05-24T20:56:39.297Z,18.32
2018-05-24T20:59:12.855Z,18.32
2018-05-24T22:32:12.436Z,17.57
2018-05-24T22:34:46.422Z,17.57
2018-05-24T22:37:18.601Z,17.54
2018-05-24T22:39:51.944Z,17.50
2018-05-24T22:42:24.823Z,17.49
2018-05-24T22:44:57.066Z,17.47
2018-05-24T22:47:31.222Z,17.46
2018-05-24T22:50:05.459Z,17.45
2018-05-24T22:52:37.646Z,17.41
2018-05-24T22:55:10.001Z,17.38
2018-05-24T22:57:42.356Z,17.35
2018-05-24T23:00:16.274Z,17.29
2018-05-24T23:02:49.422Z,17.24
2018-05-24T23:05:21.761Z,17.19
2018-05-24T23:07:53.929Z,17.18
2018-05-24T23:10:27.240Z,17.17
2018-05-24T23:12:59.267Z,17.17
2018-05-24T23:15:31.570Z,17.17
2018-05-24T23:18:04.483Z,17.15
2018-05-24T23:20:39.058Z,17.10
2018-05-24T23:23:11.261Z,17.09
2018-05-24T23:25:43.672Z,17.09
2018-05-24T23:28:17.843Z,17.07
2018-05-24T23:30:51.344Z,17.06
2018-05-24T23:33:23.399Z,17.02
2018-05-24T23:35:56.577Z,16.99
2018-05-24T23:38:29.449Z,17.00
2018-05-24T23:41:01.665Z,16.97
2018-05-24T23:43:34.178Z,16.99
2018-05-24T23:46:06.202Z,16.95
2018-05-24T23:48:39.571Z,16.95
2018-05-24T23:51:13.197Z,16.94
2018-05-24T23:53:45.242Z,16.94
2018-05-24T23:56:17.581Z,16.95
2018-05-24T23:58:50.221Z,16.96
